Station VCAF1 - 8723970 - Vaca Key, FL Image indicating link to RSS feed of recent meteorological observations for station VCAF1


Conditions at VCAF1 as of
(3:48 pm EDT)
1948 GMT on 05/28/2024:
     

Click on the graph icon in the table below to see a time series plot of the last five days of that observation.

5-day plot - Wind Direction Wind Direction (WDIR):WSW ( 250 deg true )
5-day plot - Wind Speed Wind Speed (WSPD): 4.1 kts
5-day plot - Wind Gust Wind Gust (GST): 7.0 kts
5-day plot - Air Temperature Air Temperature (ATMP): 87.8 °F
5-day plot - Water Temperature Water Temperature (WTMP): 91.4 °F
5-day plot - Wind Speed at 10 Meters Wind Speed at 10 meters (WSPD10M): 3.9 kts
5-day plot - Wind Speed at 20 Meters Wind Speed at 20 meters (WSPD20M): 3.9 kts
5-day plot -  Wind Speed, Wind Gust and Atmospheric Pressure Combined plot of Wind Speed, Gust, and Air Pressure
NOS Water Level Observation Network Water Level
Previous observations
TIME
(EDT)
5-day plot - Wind Direction
WDIR
 
5-day plot - Wind Speed
WSPD
kts
5-day plot - Wind Gust
GST
kts
5-day plot - Wave Height
WVHT
ft
5-day plot - Dominant Wave Period
DPD
sec
5-day plot - Average Wave Period
APD
sec
5-day plot - Mean Wave Direction
MWD
 
5-day plot - Atmospheric Pressure
PRES
in
5-day plot - Pressure Tendency
PTDY
in
5-day plot - Air Temperature
ATMP
°F
5-day plot - Water Temperature
WTMP
°F
5-day plot - Dew Point
DEWP
°F
5-day plot - Salinity
SAL
psu
5-day plot - Visibility
VIS
nmi
5-day plot - Tide (above MLLW)
TIDE
ft
2024-05-28 03:42 pm W 2.9 8.0------ 87.8 91.6----
2024-05-28 03:36 pm W 4.1 7.0------ 87.4 91.6----
2024-05-28 03:30 pm W 5.1 6.0------ 87.3 91.6----
2024-05-28 03:24 pm S 1.9 5.1------ 87.8 91.6----
2024-05-28 03:18 pm W 1.9 5.1------ 87.8 91.6----
2024-05-28 03:12 pmWSW 1.9 5.1------ 87.8 91.6----
2024-05-28 03:06 pmWSW 5.1 7.0------ 86.9 91.4----
2024-05-28 03:00 pmWSW 5.1 7.0------ 86.9 91.4----
2024-05-28 02:54 pm W 2.9 6.0------ 87.4 91.4----
2024-05-28 02:48 pm S 2.9 6.0------ 87.8 91.4----
2024-05-28 02:42 pm SW 2.9 6.0------ 87.8 91.2----
2024-05-28 02:36 pmWSW 2.9 5.1------ 87.4 91.2----
2024-05-28 02:30 pmSSW 4.1 6.0------ 87.8 91.2----
2024-05-28 02:24 pm SW 1.9 8.0------ 87.8 91.2----
2024-05-28 02:18 pm W 4.1 6.0------ 88.0 91.0----
2024-05-28 02:12 pm W 4.1 7.0------ 87.3 91.0----
2024-05-28 02:06 pmWSW 1.9 7.0------ 87.4 91.0----
2024-05-28 02:00 pmSSW 2.9 6.0------ 87.3 91.0----
2024-05-28 01:54 pmSSW 4.1 6.0------ 87.4 91.0----
2024-05-28 01:48 pmWSW 2.9 7.0------ 87.3 91.0----
2024-05-28 01:42 pm W 4.1 6.0------ 86.9 90.9----
2024-05-28 01:36 pm W 4.1 7.0------ 86.7 90.9----
2024-05-28 01:30 pm SW 2.9 8.0------ 88.0 90.9----
2024-05-28 01:24 pm W 5.1 7.0------ 86.7 90.9----
2024-05-28 01:18 pmWSW 4.1 7.0------ 87.6 90.7----
2024-05-28 01:12 pm S 4.1 7.0------ 87.3 90.7----
2024-05-28 01:06 pmWSW 4.1 7.0------ 87.3 90.7----
2024-05-28 01:00 pmWSW 2.9 7.0------ 87.4 90.7----
2024-05-28 12:54 pm SW 2.9 8.0------ 86.7 90.5----
2024-05-28 12:48 pmSSW 2.9 8.9------ 87.1 90.5----
2024-05-28 12:42 pm S 6.0 8.9------ 86.5 90.5----
2024-05-28 12:36 pm S 8.9 12.0------ 86.0 90.5----
2024-05-28 12:30 pm S 6.0 8.9------ 86.7 90.3----
2024-05-28 12:24 pm S 7.0 9.9------ 86.2 90.3----
2024-05-28 12:18 pm S 5.1 8.9------ 86.7 90.3----
2024-05-28 12:12 pm S 7.0 9.9------ 86.4 90.1----
2024-05-28 12:06 pmSSE 7.0 11.1------ 85.6 90.1----
2024-05-28 12:00 pm S 8.0 12.0------ 85.8 90.1----
2024-05-28 11:54 amSSE 6.0 9.9------ 86.2 90.1----
2024-05-28 11:48 am S 6.0 11.1------ 86.5 90.0----
2024-05-28 11:42 amSSE 4.1 9.9------ 86.5 90.0----
2024-05-28 11:36 am S 7.0 11.1------ 86.2 90.0----
2024-05-28 11:30 am S 6.0 9.9------ 86.0 90.0----
2024-05-28 11:24 am S 7.0 9.9------ 85.8 89.8----
2024-05-28 11:18 am S 5.1 8.9------ 86.5 89.8----
2024-05-28 11:12 am S 5.1 7.0------ 86.5 89.8----
2024-05-28 11:06 am S 5.1 7.0------ 86.5 89.8----
2024-05-28 11:00 amSSE 4.1 7.0------ 86.5 89.8----
2024-05-28 10:54 am S 6.0 8.0------ 86.2 89.6----
2024-05-28 10:48 am S 2.9 8.0------ 86.9 89.6----
2024-05-28 10:42 am S 7.0 8.9------ 86.2 89.6----
2024-05-28 10:36 am S 6.0 7.0------ 86.4 89.6----
2024-05-28 10:30 am S 4.1 7.0------ 85.8 89.6----
2024-05-28 10:24 am S 5.1 6.0------ 85.8 89.6----
2024-05-28 10:18 amENE 1.9 6.0------ 85.8 89.6----
2024-05-28 10:12 am S 5.1 8.0------ 85.3 89.6----
2024-05-28 10:06 am S 5.1 8.9------ 86.5 89.6----
2024-05-28 10:00 amSSE 5.1 8.0------ 85.8 89.6----
2024-05-28 09:54 amSSE 6.0 8.0------ 85.5 89.4----
2024-05-28 09:48 am S 5.1 9.9------ 86.0 89.4----
2024-05-28 09:42 am S 6.0 8.0------ 85.5 89.4----
2024-05-28 09:36 amSSE 5.1 9.9------ 85.5 89.4----
2024-05-28 09:30 am SE 4.1 8.0------ 85.6 89.4----
2024-05-28 09:24 am S 5.1 7.0------ 86.0 89.4----
2024-05-28 09:18 amSSE 5.1 7.0------ 85.5 89.4----
2024-05-28 09:12 amSSE 4.1 8.0------ 85.8 89.2----
2024-05-28 09:06 am S 7.0 9.9------ 85.3 89.2----
2024-05-28 09:00 am S 5.1 8.0------ 85.8 89.2----
2024-05-28 08:54 am S 6.0 8.0------ 85.8 89.2----
2024-05-28 08:48 am S 7.0 8.9------ 85.3 89.2----
2024-05-28 08:42 amSSE 6.0 8.9------ 85.3 89.2----
2024-05-28 08:36 amSSE 7.0 9.9------ 85.1 89.2----
2024-05-28 08:30 am S 7.0 9.9------ 85.1 89.2----
2024-05-28 08:24 am S 6.0 9.9------ 84.9 89.2----
2024-05-28 08:18 am S 7.0 8.9------ 85.3 89.2----
2024-05-28 08:12 am S 5.1 8.9------ 84.9 89.2----
2024-05-28 08:06 am S 7.0 8.9------ 84.6 89.2----
2024-05-28 08:00 am S 5.1 8.0------ 84.4 89.2----
2024-05-28 07:54 am S 5.1 8.9------ 84.0 89.2----
2024-05-28 07:48 am S 5.1 6.0------ 84.2 89.2----
2024-05-28 07:42 amSSE 2.9 5.1------ 84.2 89.2----
2024-05-28 07:36 amSSE 2.9 5.1------ 84.2 89.2----
2024-05-28 07:30 am S 4.1 5.1------ 83.8 89.2----
2024-05-28 07:24 am S 4.1 6.0------ 83.8 89.2----
2024-05-28 07:18 am S 4.1 7.0------ 84.0 89.2----
2024-05-28 07:12 am S 4.1 6.0------ 83.8 89.2----
2024-05-28 07:06 amSSE 4.1 5.1------ 83.7 89.2----
2024-05-28 07:00 am S 4.1 6.0------ 83.3 89.2----
2024-05-28 06:54 am S 4.1 6.0------ 83.3 89.2----
2024-05-28 06:48 amSSE 4.1 6.0------ 83.3 89.2----
2024-05-28 06:42 amSSE 2.9 5.1------ 83.1 89.2----
2024-05-28 06:36 amSSE 4.1 6.0------ 83.1 89.2----
2024-05-28 06:30 amSSE 5.1 6.0------ 82.9 89.2----
2024-05-28 06:24 amSSE 4.1 6.0------ 83.1 89.2----
2024-05-28 06:18 am S 5.1 7.0------ 83.1 89.2----
2024-05-28 06:12 amSSE 5.1 8.0------ 83.1 89.2----
2024-05-28 06:06 amSSE 5.1 8.9------ 83.3 89.2----
2024-05-28 06:00 am S 2.9 7.0------ 83.1 89.4----
2024-05-28 05:54 am S 6.0 8.0------ 83.3 89.4----
2024-05-28 05:48 amSSE 5.1 7.0------ 83.3 89.4----
2024-05-28 05:42 amSSE 5.1 7.0------ 83.5 89.2----
2024-05-28 05:36 amSSE 5.1 7.0------ 83.3 89.2----
2024-05-28 05:30 am S 6.0 7.0------ 83.3 89.2----
2024-05-28 05:24 am S 6.0 7.0------ 83.5 89.2----
2024-05-28 05:18 am S 4.1 5.1------ 83.1 89.2----
2024-05-28 05:12 am S 4.1 7.0------ 83.1 89.2----
2024-05-28 05:06 am S 5.1 8.0------ 83.1 89.2----
2024-05-28 05:00 amSSE 4.1 6.0------ 83.1 89.2----
2024-05-28 04:54 amSSE 4.1 7.0------ 83.1 89.2----
2024-05-28 04:48 amSSE 5.1 8.0------ 83.3 89.2----
2024-05-28 04:42 amSSE 4.1 7.0------ 83.1 89.2----
2024-05-28 04:36 amSSE 5.1 8.0------ 83.1 89.4----
2024-05-28 04:30 amSSE 5.1 8.0------ 83.1 89.4----
2024-05-28 04:24 am S 7.0 9.9------ 83.1 89.4----
2024-05-28 04:18 amSSE 6.0 8.9------ 82.9 89.4----
2024-05-28 04:12 am S 5.1 9.9------ 82.9 89.4----
2024-05-28 04:06 amSSE 4.1 6.0------ 82.8 89.4----
2024-05-28 04:00 amSSE 4.1 7.0------ 82.8 89.4----
2024-05-28 03:54 amSSE 5.1 8.0------ 82.9 89.4----
2024-05-28 03:48 amSSE 5.1 7.0------ 82.9 89.6----
2024-05-28 03:42 amSSE 4.1 6.0------ 82.9 89.6----
2024-05-28 03:36 amSSE 5.1 7.0------ 82.9 89.6----
2024-05-28 03:30 amSSE 5.1 8.0------ 82.9 89.6----
2024-05-28 03:24 amSSE 5.1 7.0------ 82.8 89.6----
2024-05-28 03:18 amSSE 4.1 8.0------ 82.9 89.6----
2024-05-28 03:12 amSSE 5.1 7.0------ 82.9 89.6----
2024-05-28 03:06 amSSE 4.1 5.1------ 82.9 89.8----
2024-05-28 03:00 amSSE 2.9 8.0------ 82.9 89.8----
2024-05-28 02:54 amSSE 5.1 8.0------ 83.1 89.8----
2024-05-28 02:48 amSSE 5.1 8.0------ 83.1 89.8----
2024-05-28 02:42 amSSE 4.1 8.0------ 83.1 89.8----
2024-05-28 02:36 amSSE 5.1 8.9------ 83.1 89.8----
2024-05-28 02:30 amSSE 6.0 8.9------ 83.1 89.8----
2024-05-28 02:24 amSSE 4.1 7.0------ 83.1 90.0----
2024-05-28 02:18 amSSE 4.1 8.0------ 83.3 90.0----
2024-05-28 02:12 amSSE 5.1 7.0------ 83.3 90.0----
2024-05-28 02:06 amSSE 5.1 7.0------ 83.1 90.0----
2024-05-28 02:00 amSSE 2.9 6.0------ 83.1 90.0----
2024-05-28 01:54 amSSE 2.9 7.0------ 83.3 90.0----
2024-05-28 01:48 amSSE 5.1 8.0------ 83.3 90.1----
2024-05-28 01:42 amSSE 4.1 8.0------ 83.5 90.1----
2024-05-28 01:36 am SE 6.0 8.9------ 83.5 90.1----
2024-05-28 01:30 amSSE 5.1 8.0------ 83.5 90.1----
2024-05-28 01:24 amSSE 5.1 8.9------ 83.7 90.1----
2024-05-28 01:18 amSSE 5.1 8.0------ 83.7 90.1----
2024-05-28 01:12 am SE 5.1 9.9------ 83.7 90.1----
2024-05-28 01:06 am SE 6.0 11.1------ 83.5 90.3----
2024-05-28 01:00 am SE 5.1 8.9------ 83.5 90.3----
2024-05-28 12:54 amSSE 4.1 8.0------ 83.5 90.3----
2024-05-28 12:48 am SE 4.1 7.0------ 83.3 90.3----
2024-05-28 12:42 amSSE 4.1 8.0------ 83.5 90.3----
2024-05-28 12:36 am SE 5.1 8.0------ 83.5 90.5----
2024-05-28 12:30 amSSE 4.1 6.0------ 83.3 90.5----
2024-05-28 12:24 am SE 5.1 7.0------ 83.7 90.5----
2024-05-28 12:18 amSSE 4.1 7.0------ 83.5 90.5----
2024-05-28 12:12 am SE 4.1 6.0------ 83.5 90.5----
2024-05-28 12:06 am SE 4.1 6.0------ 83.7 90.7----
2024-05-28 12:00 am SE 5.1 7.0------ 83.5 90.7----
2024-05-27 11:54 pmSSE 2.9 7.0------ 83.5 90.7----
2024-05-27 11:48 pm SE 4.1 7.0------ 83.5 90.7----
2024-05-27 11:42 pmSSE 4.1 6.0------ 83.5 90.7----
2024-05-27 11:36 pmSSE 4.1 5.1------ 83.7 90.7----
2024-05-27 11:30 pm SE 2.9 6.0------ 83.7 90.7----
2024-05-27 11:24 pm SE 2.9 7.0------ 83.7 90.7----
2024-05-27 11:18 pm SE 4.1 6.0------ 83.5 90.7----
2024-05-27 11:12 pm SE 2.9 4.1------ 83.5 90.7----
2024-05-27 11:06 pm SE 2.9 5.1------ 83.5 90.7----
2024-05-27 11:00 pmSSE 1.9 2.9------ 83.3 90.9----
2024-05-27 10:54 pmSSE 1.9 2.9------ 83.5 90.9----
2024-05-27 10:48 pmSSE 1.9 4.1------ 83.7 91.0----
2024-05-27 10:42 pm SE 2.9 5.1------ 83.8 91.0----
2024-05-27 10:36 pmSSE 1.9 2.9------ 83.7 91.0----
2024-05-27 10:30 pmSSE 1.9 4.1------ 83.7 91.0----
2024-05-27 10:24 pmSSE 1.9 2.9------ 83.7 91.2----
2024-05-27 10:18 pmSSE 1.9 4.1------ 83.7 91.2----
2024-05-27 10:12 pmSSE 1.9 2.9------ 83.7 91.2----
2024-05-27 10:06 pm S 1.9 2.9------ 83.7 91.2----
2024-05-27 10:00 pmSSE 1.9 2.9------ 83.7 91.2----
2024-05-27 09:54 pmSSE 1.9 4.1------ 83.8 91.2----
2024-05-27 09:48 pm S 2.9 4.1------ 83.8 91.2----
2024-05-27 09:42 pmSSE 1.9 2.9------ 84.0 91.2----
2024-05-27 09:36 pmSSE 1.0 4.1------ 83.8 91.2----
2024-05-27 09:30 pmSSE 1.9 2.9------ 83.8 91.2----
2024-05-27 09:24 pm S 2.9 4.1------ 83.8 91.2----
2024-05-27 09:18 pm S 2.9 5.1------ 84.0 91.2----
2024-05-27 09:12 pmSSE 2.9 4.1------ 84.4 91.2----
2024-05-27 09:06 pm S 1.9 4.1------ 84.4 91.2----
2024-05-27 09:00 pmSSE 1.9 4.1------ 84.4 91.2----
2024-05-27 08:54 pmSSE 1.9 4.1------ 84.4 91.2----
2024-05-27 08:48 pm S 1.9 2.9------ 84.4 91.2----
2024-05-27 08:42 pm S 1.9 4.1------ 84.4 91.2----
2024-05-27 08:36 pmSSE 1.9 4.1------ 84.7 91.2----
2024-05-27 08:30 pm S 2.9 4.1------ 84.6 91.2----
2024-05-27 08:24 pmSSE 1.9 4.1------ 84.6 91.2----
2024-05-27 08:18 pmSSE 4.1 4.1------ 84.6 91.4----
2024-05-27 08:12 pmSSE 2.9 5.1------ 84.7 91.4----
2024-05-27 08:06 pm SE 4.1 5.1------ 84.9 91.4----
2024-05-27 08:00 pmSSE 2.9 5.1------ 84.9 91.4----
2024-05-27 07:54 pmSSE 2.9 5.1------ 85.5 91.4----
2024-05-27 07:48 pmSSE 2.9 6.0------- 91.4----
2024-05-27 07:42 pm SE 4.1 6.0------- 91.4----
2024-05-27 07:36 pm SE 4.1 7.0------- 91.4----
2024-05-27 07:30 pm S 5.1 7.0------ 85.6 91.4----
2024-05-27 07:24 pmSSE 4.1 7.0------ 86.0 91.4----
2024-05-27 07:18 pm S 5.1 7.0------ 86.0 91.4----
2024-05-27 07:12 pmSSE 5.1 7.0------ 86.0 91.4----
2024-05-27 07:06 pmSSE 5.1 8.0------ 86.0 91.4----
2024-05-27 07:00 pm SE 4.1 6.0------ 86.5 91.4----
2024-05-27 06:54 pm S 4.1 6.0------ 86.4 91.4----
2024-05-27 06:48 pmSSE 5.1 6.0------ 86.5 91.4----
2024-05-27 06:42 pmSSE 2.9 8.0------ 87.1 91.4----
2024-05-27 06:36 pm S 4.1 8.0------ 86.7 91.4----
2024-05-27 06:30 pmSSE 4.1 8.0------ 86.7 91.4----
2024-05-27 06:24 pmSSE 4.1 7.0------ 87.3 91.4----
2024-05-27 06:18 pm S 6.0 8.9------ 86.9 91.4----
2024-05-27 06:12 pm S 5.1 7.0------ 87.3 91.4----
2024-05-27 06:06 pm SE 4.1 7.0------ 87.8 91.4----
2024-05-27 06:00 pm--------- 87.6 91.4----
2024-05-27 05:54 pm--------- 88.2 91.4----
2024-05-27 05:48 pm SE 2.9 7.0------ 88.2 91.4----
2024-05-27 05:42 pmSSE 4.1 7.0------ 88.0 91.4----
2024-05-27 05:36 pmSSE 5.1 8.0------ 87.8 91.2----
2024-05-27 05:30 pmSSE 4.1 6.0------- 91.2----
2024-05-27 05:24 pmESE 2.9 5.1------- 91.2----
2024-05-27 05:18 pmSSW 2.9 5.1------ 88.5 91.2----
2024-05-27 05:12 pm S 2.9 4.1------ 88.0 91.2----
2024-05-27 05:06 pm E 4.1 7.0------ 87.6 91.2----
2024-05-27 05:00 pm SE 2.9 7.0------ 88.5 91.2----
2024-05-27 04:54 pm E 4.1 7.0------ 87.4 91.0----
2024-05-27 04:48 pmESE 2.9 7.0------ 87.8 91.0----
2024-05-27 04:42 pm SE 1.9 7.0------ 88.2 91.0----
2024-05-27 04:36 pmSSE 4.1 7.0------ 87.4 90.9----
2024-05-27 04:30 pm--------- 87.6 90.9----
2024-05-27 04:24 pm--------- 87.3 90.9----
2024-05-27 04:18 pmSSE 4.1 7.0------ 88.3 90.9----
2024-05-27 04:12 pmSSE 4.1 6.0------ 87.6 90.7----
2024-05-27 04:06 pm SE 4.1 6.0------ 88.2 90.7----
2024-05-27 04:00 pm E 1.9 5.1------ 88.0 90.9----
2024-05-27 03:54 pm E 4.1 6.0------ 88.2 90.9----